sensor_id;sensor_type;location;lat;lon;timestamp;P1;durP1;ratioP1;P2;durP2;ratioP2
36001;SDS011;22070;50.922;5.430;2023-08-20T00:00:09;14.38;;;9.45;;
36001;SDS011;22070;50.922;5.430;2023-08-20T00:02:36;12.10;;;10.02;;
36001;SDS011;22070;50.922;5.430;2023-08-20T00:05:04;11.73;;;9.57;;
36001;SDS011;22070;50.922;5.430;2023-08-20T00:07:31;14.95;;;11.10;;
36001;SDS011;22070;50.922;5.430;2023-08-20T00:09:56;15.00;;;11.82;;
36001;SDS011;22070;50.922;5.430;2023-08-20T00:12:22;18.70;;;12.23;;
36001;SDS011;22070;50.922;5.430;2023-08-20T00:14:52;25.85;;;12.65;;
36001;SDS011;22070;50.922;5.430;2023-08-20T00:17:19;23.23;;;11.68;;
36001;SDS011;22070;50.922;5.430;2023-08-20T00:19:46;16.45;;;12.13;;
36001;SDS011;22070;50.922;5.430;2023-08-20T00:24:38;15.20;;;11.88;;
36001;SDS011;22070;50.922;5.430;2023-08-20T00:27:04;15.88;;;12.50;;
36001;SDS011;22070;50.922;5.430;2023-08-20T00:29:29;17.93;;;12.60;;
36001;SDS011;22070;50.922;5.430;2023-08-20T00:31:55;14.70;;;12.07;;
36001;SDS011;22070;50.922;5.430;2023-08-20T00:34:21;19.37;;;12.57;;
36001;SDS011;22070;50.922;5.430;2023-08-20T00:36:46;15.70;;;12.87;;
36001;SDS011;22070;50.922;5.430;2023-08-20T00:39:12;18.30;;;11.83;;
36001;SDS011;22070;50.922;5.430;2023-08-20T00:41:37;20.70;;;12.30;;
36001;SDS011;22070;50.922;5.430;2023-08-20T00:44:03;18.47;;;12.30;;
36001;SDS011;22070;50.922;5.430;2023-08-20T00:46:29;17.10;;;12.20;;
36001;SDS011;22070;50.922;5.430;2023-08-20T00:48:55;19.73;;;12.25;;
36001;SDS011;22070;50.922;5.430;2023-08-20T00:51:22;14.60;;;11.50;;
36001;SDS011;22070;50.922;5.430;2023-08-20T00:53:48;18.55;;;11.75;;
36001;SDS011;22070;50.922;5.430;2023-08-20T00:56:14;19.27;;;13.03;;
36001;SDS011;22070;50.922;5.430;2023-08-20T00:58:41;18.20;;;12.52;;
36001;SDS011;22070;50.922;5.430;2023-08-20T01:01:07;17.50;;;12.45;;
36001;SDS011;22070;50.922;5.430;2023-08-20T01:03:33;22.47;;;11.73;;
36001;SDS011;22070;50.922;5.430;2023-08-20T01:06:20;15.03;;;11.73;;
36001;SDS011;22070;50.922;5.430;2023-08-20T01:09:57;20.10;;;12.05;;
36001;SDS011;22070;50.922;5.430;2023-08-20T01:12:08;16.95;;;11.32;;
36001;SDS011;22070;50.922;5.430;2023-08-20T01:14:35;17.42;;;11.38;;
36001;SDS011;22070;50.922;5.430;2023-08-20T01:17:00;15.83;;;11.40;;
36001;SDS011;22070;50.922;5.430;2023-08-20T01:19:27;19.60;;;11.00;;
36001;SDS011;22070;50.922;5.430;2023-08-20T01:30:14;19.70;;;9.43;;
36001;SDS011;22070;50.922;5.430;2023-08-20T01:32:40;14.95;;;9.90;;
36001;SDS011;22070;50.922;5.430;2023-08-20T01:37:39;15.13;;;9.55;;
36001;SDS011;22070;50.922;5.430;2023-08-20T01:40:06;12.65;;;7.90;;
36001;SDS011;22070;50.922;5.430;2023-08-20T01:42:34;15.60;;;7.97;;
36001;SDS011;22070;50.922;5.430;2023-08-20T01:45:00;13.97;;;7.30;;
36001;SDS011;22070;50.922;5.430;2023-08-20T01:47:25;12.03;;;7.77;;
36001;SDS011;22070;50.922;5.430;2023-08-20T01:49:51;16.40;;;6.83;;
36001;SDS011;22070;50.922;5.430;2023-08-20T01:52:17;19.90;;;7.53;;
36001;SDS011;22070;50.922;5.430;2023-08-20T01:54:42;16.33;;;7.50;;
36001;SDS011;22070;50.922;5.430;2023-08-20T01:57:08;12.57;;;6.97;;
36001;SDS011;22070;50.922;5.430;2023-08-20T01:59:33;16.63;;;6.73;;
36001;SDS011;22070;50.922;5.430;2023-08-20T02:01:59;13.17;;;6.63;;
36001;SDS011;22070;50.922;5.430;2023-08-20T02:04:25;10.00;;;6.23;;
36001;SDS011;22070;50.922;5.430;2023-08-20T02:06:50;13.30;;;6.20;;
36001;SDS011;22070;50.922;5.430;2023-08-20T02:09:16;16.73;;;5.87;;
36001;SDS011;22070;50.922;5.430;2023-08-20T02:11:44;10.20;;;5.63;;
36001;SDS011;22070;50.922;5.430;2023-08-20T02:14:10;11.40;;;5.60;;
36001;SDS011;22070;50.922;5.430;2023-08-20T02:16:35;16.07;;;5.50;;
36001;SDS011;22070;50.922;5.430;2023-08-20T02:19:02;11.83;;;5.13;;
36001;SDS011;22070;50.922;5.430;2023-08-20T02:21:28;12.07;;;5.60;;
36001;SDS011;22070;50.922;5.430;2023-08-20T02:23:54;16.48;;;5.38;;
36001;SDS011;22070;50.922;5.430;2023-08-20T02:26:19;10.97;;;5.57;;
36001;SDS011;22070;50.922;5.430;2023-08-20T02:28:45;6.17;;;5.00;;
36001;SDS011;22070;50.922;5.430;2023-08-20T02:31:11;24.30;;;5.50;;
36001;SDS011;22070;50.922;5.430;2023-08-20T02:33:36;12.63;;;5.53;;
36001;SDS011;22070;50.922;5.430;2023-08-20T02:36:02;11.73;;;5.67;;
36001;SDS011;22070;50.922;5.430;2023-08-20T02:38:29;10.23;;;4.60;;
36001;SDS011;22070;50.922;5.430;2023-08-20T02:40:55;11.30;;;4.75;;
36001;SDS011;22070;50.922;5.430;2023-08-20T02:43:20;12.87;;;5.27;;
36001;SDS011;22070;50.922;5.430;2023-08-20T02:45:46;12.80;;;4.80;;
36001;SDS011;22070;50.922;5.430;2023-08-20T02:48:14;12.17;;;5.03;;
36001;SDS011;22070;50.922;5.430;2023-08-20T02:50:40;12.38;;;4.47;;
36001;SDS011;22070;50.922;5.430;2023-08-20T02:53:06;10.33;;;4.57;;
36001;SDS011;22070;50.922;5.430;2023-08-20T02:55:32;8.70;;;4.13;;
36001;SDS011;22070;50.922;5.430;2023-08-20T02:57:58;11.27;;;4.45;;
36001;SDS011;22070;50.922;5.430;2023-08-20T03:00:24;13.60;;;5.10;;
36001;SDS011;22070;50.922;5.430;2023-08-20T03:02:50;12.87;;;4.83;;
36001;SDS011;22070;50.922;5.430;2023-08-20T03:05:16;10.87;;;4.67;;
36001;SDS011;22070;50.922;5.430;2023-08-20T03:07:41;11.83;;;4.90;;
36001;SDS011;22070;50.922;5.430;2023-08-20T03:10:07;9.97;;;4.57;;
36001;SDS011;22070;50.922;5.430;2023-08-20T03:12:33;10.93;;;5.17;;
36001;SDS011;22070;50.922;5.430;2023-08-20T03:14:59;12.17;;;5.03;;
36001;SDS011;22070;50.922;5.430;2023-08-20T03:17:25;10.10;;;4.80;;
36001;SDS011;22070;50.922;5.430;2023-08-20T03:19:55;9.67;;;5.33;;
36001;SDS011;22070;50.922;5.430;2023-08-20T03:22:22;14.88;;;4.47;;
36001;SDS011;22070;50.922;5.430;2023-08-20T03:24:48;8.77;;;4.53;;
36001;SDS011;22070;50.922;5.430;2023-08-20T03:27:15;10.43;;;4.30;;
36001;SDS011;22070;50.922;5.430;2023-08-20T03:29:41;10.15;;;4.03;;
36001;SDS011;22070;50.922;5.430;2023-08-20T03:32:07;7.10;;;4.10;;
36001;SDS011;22070;50.922;5.430;2023-08-20T03:34:32;11.93;;;4.23;;
36001;SDS011;22070;50.922;5.430;2023-08-20T03:36:58;7.50;;;4.17;;
36001;SDS011;22070;50.922;5.430;2023-08-20T03:39:24;14.03;;;4.37;;
36001;SDS011;22070;50.922;5.430;2023-08-20T03:41:50;14.67;;;4.00;;
36001;SDS011;22070;50.922;5.430;2023-08-20T03:44:15;8.27;;;4.30;;
36001;SDS011;22070;50.922;5.430;2023-08-20T03:46:41;14.27;;;4.50;;
36001;SDS011;22070;50.922;5.430;2023-08-20T03:49:07;10.47;;;4.47;;
36001;SDS011;22070;50.922;5.430;2023-08-20T03:51:32;13.77;;;4.40;;
36001;SDS011;22070;50.922;5.430;2023-08-20T03:53:58;11.77;;;4.70;;
36001;SDS011;22070;50.922;5.430;2023-08-20T03:56:24;10.20;;;4.50;;
36001;SDS011;22070;50.922;5.430;2023-08-20T03:58:49;11.33;;;3.50;;
36001;SDS011;22070;50.922;5.430;2023-08-20T04:01:15;10.07;;;4.33;;
36001;SDS011;22070;50.922;5.430;2023-08-20T04:03:41;7.83;;;3.97;;
36001;SDS011;22070;50.922;5.430;2023-08-20T04:06:06;9.73;;;3.90;;
36001;SDS011;22070;50.922;5.430;2023-08-20T04:08:32;10.30;;;4.13;;
36001;SDS011;22070;50.922;5.430;2023-08-20T04:10:58;12.77;;;4.37;;
36001;SDS011;22070;50.922;5.430;2023-08-20T04:13:23;7.60;;;4.20;;
36001;SDS011;22070;50.922;5.430;2023-08-20T04:15:49;10.00;;;4.03;;
36001;SDS011;22070;50.922;5.430;2023-08-20T04:18:16;6.47;;;4.05;;
36001;SDS011;22070;50.922;5.430;2023-08-20T04:20:42;7.37;;;3.73;;
36001;SDS011;22070;50.922;5.430;2023-08-20T04:23:07;13.57;;;4.17;;
36001;SDS011;22070;50.922;5.430;2023-08-20T04:25:33;9.37;;;4.60;;
36001;SDS011;22070;50.922;5.430;2023-08-20T04:27:59;8.05;;;4.05;;
36001;SDS011;22070;50.922;5.430;2023-08-20T04:30:25;10.97;;;4.50;;
36001;SDS011;22070;50.922;5.430;2023-08-20T04:32:50;7.53;;;4.17;;
36001;SDS011;22070;50.922;5.430;2023-08-20T04:35:16;11.43;;;4.37;;
36001;SDS011;22070;50.922;5.430;2023-08-20T04:37:42;13.90;;;4.70;;
36001;SDS011;22070;50.922;5.430;2023-08-20T04:40:07;8.03;;;4.10;;
36001;SDS011;22070;50.922;5.430;2023-08-20T04:42:33;10.13;;;3.97;;
36001;SDS011;22070;50.922;5.430;2023-08-20T04:44:59;8.10;;;4.40;;
36001;SDS011;22070;50.922;5.430;2023-08-20T04:47:25;9.30;;;4.47;;
36001;SDS011;22070;50.922;5.430;2023-08-20T04:49:50;10.47;;;4.10;;
36001;SDS011;22070;50.922;5.430;2023-08-20T04:52:16;10.03;;;4.27;;
36001;SDS011;22070;50.922;5.430;2023-08-20T04:54:42;9.23;;;4.07;;
36001;SDS011;22070;50.922;5.430;2023-08-20T04:57:07;8.07;;;4.10;;
36001;SDS011;22070;50.922;5.430;2023-08-20T04:59:33;12.37;;;4.70;;
36001;SDS011;22070;50.922;5.430;2023-08-20T05:01:59;11.50;;;4.70;;
36001;SDS011;22070;50.922;5.430;2023-08-20T05:04:24;13.57;;;5.10;;
36001;SDS011;22070;50.922;5.430;2023-08-20T05:06:50;7.87;;;4.23;;
36001;SDS011;22070;50.922;5.430;2023-08-20T05:09:15;8.97;;;4.10;;
36001;SDS011;22070;50.922;5.430;2023-08-20T05:11:41;11.63;;;4.80;;
36001;SDS011;22070;50.922;5.430;2023-08-20T05:14:07;12.03;;;4.63;;
36001;SDS011;22070;50.922;5.430;2023-08-20T05:16:32;9.33;;;4.10;;
36001;SDS011;22070;50.922;5.430;2023-08-20T05:18:58;12.73;;;4.40;;
36001;SDS011;22070;50.922;5.430;2023-08-20T05:21:24;10.70;;;4.47;;
36001;SDS011;22070;50.922;5.430;2023-08-20T05:23:50;6.13;;;3.13;;
36001;SDS011;22070;50.922;5.430;2023-08-20T05:26:15;12.70;;;4.70;;
36001;SDS011;22070;50.922;5.430;2023-08-20T05:28:41;12.77;;;4.40;;
36001;SDS011;22070;50.922;5.430;2023-08-20T05:31:06;11.80;;;4.40;;
36001;SDS011;22070;50.922;5.430;2023-08-20T05:33:32;9.67;;;4.00;;
36001;SDS011;22070;50.922;5.430;2023-08-20T05:35:59;10.13;;;4.30;;
36001;SDS011;22070;50.922;5.430;2023-08-20T05:38:25;8.82;;;4.22;;
36001;SDS011;22070;50.922;5.430;2023-08-20T05:40:51;9.53;;;4.17;;
36001;SDS011;22070;50.922;5.430;2023-08-20T05:43:16;9.73;;;4.67;;
36001;SDS011;22070;50.922;5.430;2023-08-20T05:45:42;10.57;;;4.83;;
36001;SDS011;22070;50.922;5.430;2023-08-20T05:48:07;10.10;;;4.77;;
36001;SDS011;22070;50.922;5.430;2023-08-20T05:50:33;9.77;;;4.37;;
36001;SDS011;22070;50.922;5.430;2023-08-20T05:52:59;11.20;;;4.80;;
36001;SDS011;22070;50.922;5.430;2023-08-20T05:55:25;8.57;;;4.97;;
36001;SDS011;22070;50.922;5.430;2023-08-20T05:57:51;11.57;;;5.10;;
36001;SDS011;22070;50.922;5.430;2023-08-20T06:00:16;11.17;;;4.90;;
36001;SDS011;22070;50.922;5.430;2023-08-20T06:02:43;11.32;;;5.40;;
36001;SDS011;22070;50.922;5.430;2023-08-20T06:05:09;17.30;;;5.53;;
36001;SDS011;22070;50.922;5.430;2023-08-20T06:07:35;10.52;;;5.35;;
36001;SDS011;22070;50.922;5.430;2023-08-20T06:10:00;9.77;;;5.50;;
36001;SDS011;22070;50.922;5.430;2023-08-20T06:12:26;17.13;;;6.03;;
36001;SDS011;22070;50.922;5.430;2023-08-20T06:14:52;14.10;;;6.13;;
36001;SDS011;22070;50.922;5.430;2023-08-20T06:17:17;9.90;;;5.50;;
36001;SDS011;22070;50.922;5.430;2023-08-20T06:19:44;14.53;;;6.27;;
36001;SDS011;22070;50.922;5.430;2023-08-20T06:22:10;15.73;;;6.10;;
36001;SDS011;22070;50.922;5.430;2023-08-20T06:24:35;11.10;;;5.60;;
36001;SDS011;22070;50.922;5.430;2023-08-20T06:27:01;14.03;;;5.43;;
36001;SDS011;22070;50.922;5.430;2023-08-20T06:29:27;9.17;;;5.20;;
36001;SDS011;22070;50.922;5.430;2023-08-20T06:31:52;8.27;;;3.90;;
36001;SDS011;22070;50.922;5.430;2023-08-20T06:34:18;11.20;;;5.70;;
36001;SDS011;22070;50.922;5.430;2023-08-20T06:36:43;11.50;;;5.33;;
36001;SDS011;22070;50.922;5.430;2023-08-20T06:39:09;11.20;;;5.57;;
36001;SDS011;22070;50.922;5.430;2023-08-20T06:41:35;10.88;;;5.10;;
36001;SDS011;22070;50.922;5.430;2023-08-20T06:44:02;16.03;;;5.40;;
36001;SDS011;22070;50.922;5.430;2023-08-20T06:46:28;12.50;;;5.22;;
36001;SDS011;22070;50.922;5.430;2023-08-20T06:48:53;10.63;;;4.57;;
36001;SDS011;22070;50.922;5.430;2023-08-20T06:51:20;15.03;;;5.47;;
36001;SDS011;22070;50.922;5.430;2023-08-20T06:53:46;11.48;;;5.03;;
36001;SDS011;22070;50.922;5.430;2023-08-20T06:56:12;11.43;;;4.97;;
36001;SDS011;22070;50.922;5.430;2023-08-20T06:58:39;15.57;;;5.17;;
36001;SDS011;22070;50.922;5.430;2023-08-20T07:01:06;13.27;;;5.05;;
36001;SDS011;22070;50.922;5.430;2023-08-20T07:06:05;12.98;;;5.75;;
36001;SDS011;22070;50.922;5.430;2023-08-20T07:08:32;11.40;;;4.93;;
36001;SDS011;22070;50.922;5.430;2023-08-20T07:10:57;10.53;;;5.10;;
36001;SDS011;22070;50.922;5.430;2023-08-20T07:13:23;15.90;;;5.63;;
36001;SDS011;22070;50.922;5.430;2023-08-20T07:15:49;13.60;;;5.73;;
36001;SDS011;22070;50.922;5.430;2023-08-20T07:18:16;13.98;;;6.15;;
36001;SDS011;22070;50.922;5.430;2023-08-20T07:20:42;13.63;;;5.60;;
36001;SDS011;22070;50.922;5.430;2023-08-20T07:25:38;10.15;;;6.40;;
36001;SDS011;22070;50.922;5.430;2023-08-20T07:28:04;18.95;;;7.00;;
36001;SDS011;22070;50.922;5.430;2023-08-20T07:30:31;12.93;;;6.15;;
36001;SDS011;22070;50.922;5.430;2023-08-20T07:32:57;15.55;;;6.22;;
36001;SDS011;22070;50.922;5.430;2023-08-20T07:35:22;16.90;;;6.30;;
36001;SDS011;22070;50.922;5.430;2023-08-20T07:37:48;12.23;;;5.45;;
36001;SDS011;22070;50.922;5.430;2023-08-20T07:40:14;13.13;;;6.80;;
36001;SDS011;22070;50.922;5.430;2023-08-20T07:42:40;15.67;;;6.53;;
36001;SDS011;22070;50.922;5.430;2023-08-20T07:45:06;24.50;;;7.65;;
36001;SDS011;22070;50.922;5.430;2023-08-20T07:47:33;15.85;;;5.93;;
36001;SDS011;22070;50.922;5.430;2023-08-20T07:49:59;14.90;;;6.93;;
36001;SDS011;22070;50.922;5.430;2023-08-20T07:52:25;17.80;;;7.25;;
36001;SDS011;22070;50.922;5.430;2023-08-20T07:54:51;20.00;;;7.97;;
36001;SDS011;22070;50.922;5.430;2023-08-20T07:57:16;20.03;;;9.13;;
36001;SDS011;22070;50.922;5.430;2023-08-20T07:59:42;15.00;;;7.90;;
36001;SDS011;22070;50.922;5.430;2023-08-20T08:02:08;18.10;;;7.97;;
36001;SDS011;22070;50.922;5.430;2023-08-20T08:04:34;18.57;;;7.70;;
36001;SDS011;22070;50.922;5.430;2023-08-20T08:07:00;20.55;;;8.27;;
36001;SDS011;22070;50.922;5.430;2023-08-20T08:09:27;19.58;;;8.77;;
36001;SDS011;22070;50.922;5.430;2023-08-20T08:11:54;16.95;;;7.22;;
36001;SDS011;22070;50.922;5.430;2023-08-20T08:14:20;26.58;;;9.40;;
36001;SDS011;22070;50.922;5.430;2023-08-20T08:16:47;30.55;;;9.48;;
36001;SDS011;22070;50.922;5.430;2023-08-20T08:19:12;21.53;;;9.67;;
36001;SDS011;22070;50.922;5.430;2023-08-20T08:21:39;22.42;;;9.30;;
36001;SDS011;22070;50.922;5.430;2023-08-20T08:24:04;19.93;;;9.63;;
36001;SDS011;22070;50.922;5.430;2023-08-20T08:26:31;19.23;;;8.48;;
36001;SDS011;22070;50.922;5.430;2023-08-20T08:28:59;16.40;;;8.23;;
36001;SDS011;22070;50.922;5.430;2023-08-20T08:31:24;12.57;;;7.80;;
36001;SDS011;22070;50.922;5.430;2023-08-20T08:33:50;18.87;;;8.83;;
36001;SDS011;22070;50.922;5.430;2023-08-20T08:36:15;15.80;;;8.33;;
36001;SDS011;22070;50.922;5.430;2023-08-20T08:38:42;19.67;;;8.82;;
36001;SDS011;22070;50.922;5.430;2023-08-20T08:41:10;20.08;;;7.95;;
36001;SDS011;22070;50.922;5.430;2023-08-20T08:43:39;18.15;;;8.27;;
36001;SDS011;22070;50.922;5.430;2023-08-20T08:46:23;16.98;;;8.52;;
36001;SDS011;22070;50.922;5.430;2023-08-20T08:48:50;17.85;;;8.45;;
36001;SDS011;22070;50.922;5.430;2023-08-20T08:51:17;26.25;;;8.85;;
36001;SDS011;22070;50.922;5.430;2023-08-20T08:53:43;17.95;;;9.35;;
36001;SDS011;22070;50.922;5.430;2023-08-20T08:56:10;17.67;;;9.85;;
36001;SDS011;22070;50.922;5.430;2023-08-20T08:58:35;17.30;;;9.38;;
36001;SDS011;22070;50.922;5.430;2023-08-20T09:01:01;18.87;;;9.53;;
36001;SDS011;22070;50.922;5.430;2023-08-20T09:03:27;17.27;;;9.15;;
36001;SDS011;22070;50.922;5.430;2023-08-20T09:05:57;22.63;;;9.33;;
36001;SDS011;22070;50.922;5.430;2023-08-20T09:08:30;21.40;;;8.98;;
36001;SDS011;22070;50.922;5.430;2023-08-20T09:10:57;19.48;;;9.15;;
36001;SDS011;22070;50.922;5.430;2023-08-20T09:13:26;21.63;;;9.38;;
36001;SDS011;22070;50.922;5.430;2023-08-20T09:15:58;21.05;;;9.15;;
36001;SDS011;22070;50.922;5.430;2023-08-20T09:18:24;23.50;;;9.33;;
36001;SDS011;22070;50.922;5.430;2023-08-20T09:20:50;15.73;;;8.90;;
36001;SDS011;22070;50.922;5.430;2023-08-20T09:23:16;17.48;;;8.40;;
36001;SDS011;22070;50.922;5.430;2023-08-20T09:25:42;16.67;;;7.60;;
36001;SDS011;22070;50.922;5.430;2023-08-20T09:28:08;17.30;;;8.00;;
36001;SDS011;22070;50.922;5.430;2023-08-20T09:30:34;14.67;;;7.00;;
36001;SDS011;22070;50.922;5.430;2023-08-20T09:33:10;13.95;;;7.10;;
36001;SDS011;22070;50.922;5.430;2023-08-20T09:35:38;18.08;;;8.07;;
36001;SDS011;22070;50.922;5.430;2023-08-20T09:38:13;12.77;;;7.22;;
36001;SDS011;22070;50.922;5.430;2023-08-20T09:40:38;15.20;;;7.17;;
36001;SDS011;22070;50.922;5.430;2023-08-20T09:43:05;12.38;;;7.40;;
36001;SDS011;22070;50.922;5.430;2023-08-20T09:45:34;14.50;;;6.82;;
36001;SDS011;22070;50.922;5.430;2023-08-20T09:48:01;15.40;;;6.50;;
36001;SDS011;22070;50.922;5.430;2023-08-20T09:50:30;13.80;;;6.38;;
36001;SDS011;22070;50.922;5.430;2023-08-20T09:55:47;14.95;;;5.88;;
36001;SDS011;22070;50.922;5.430;2023-08-20T09:58:16;12.50;;;5.70;;
36001;SDS011;22070;50.922;5.430;2023-08-20T10:00:46;11.77;;;5.30;;
36001;SDS011;22070;50.922;5.430;2023-08-20T10:03:15;13.32;;;5.18;;
36001;SDS011;22070;50.922;5.430;2023-08-20T10:05:41;13.05;;;5.55;;
36001;SDS011;22070;50.922;5.430;2023-08-20T10:08:07;10.70;;;5.53;;
36001;SDS011;22070;50.922;5.430;2023-08-20T10:10:33;11.93;;;4.63;;
36001;SDS011;22070;50.922;5.430;2023-08-20T10:12:59;6.63;;;4.22;;
36001;SDS011;22070;50.922;5.430;2023-08-20T10:15:25;10.13;;;4.10;;
36001;SDS011;22070;50.922;5.430;2023-08-20T10:17:53;12.30;;;4.43;;
36001;SDS011;22070;50.922;5.430;2023-08-20T10:20:18;9.53;;;4.30;;
36001;SDS011;22070;50.922;5.430;2023-08-20T10:22:45;8.05;;;4.20;;
36001;SDS011;22070;50.922;5.430;2023-08-20T10:25:11;7.43;;;4.05;;
36001;SDS011;22070;50.922;5.430;2023-08-20T10:27:46;17.98;;;4.47;;
36001;SDS011;22070;50.922;5.430;2023-08-20T10:30:19;6.20;;;2.63;;
36001;SDS011;22070;50.922;5.430;2023-08-20T10:32:53;13.00;;;4.07;;
36001;SDS011;22070;50.922;5.430;2023-08-20T10:35:47;12.02;;;4.45;;
36001;SDS011;22070;50.922;5.430;2023-08-20T10:38:14;9.60;;;3.55;;
36001;SDS011;22070;50.922;5.430;2023-08-20T10:40:57;11.32;;;3.80;;
36001;SDS011;22070;50.922;5.430;2023-08-20T10:43:39;11.80;;;4.10;;
36001;SDS011;22070;50.922;5.430;2023-08-20T10:46:15;10.48;;;3.63;;
36001;SDS011;22070;50.922;5.430;2023-08-20T10:48:50;10.57;;;4.00;;
36001;SDS011;22070;50.922;5.430;2023-08-20T10:54:05;8.70;;;3.67;;
36001;SDS011;22070;50.922;5.430;2023-08-20T10:59:14;20.05;;;3.95;;
36001;SDS011;22070;50.922;5.430;2023-08-20T11:01:49;7.22;;;3.55;;
36001;SDS011;22070;50.922;5.430;2023-08-20T11:04:17;11.48;;;3.53;;
36001;SDS011;22070;50.922;5.430;2023-08-20T11:06:45;6.28;;;3.00;;
36001;SDS011;22070;50.922;5.430;2023-08-20T11:09:11;4.72;;;3.00;;
36001;SDS011;22070;50.922;5.430;2023-08-20T11:11:38;9.40;;;3.13;;
36001;SDS011;22070;50.922;5.430;2023-08-20T11:14:08;8.15;;;2.85;;
36001;SDS011;22070;50.922;5.430;2023-08-20T11:16:40;9.68;;;3.40;;
36001;SDS011;22070;50.922;5.430;2023-08-20T11:19:08;5.43;;;2.90;;
36001;SDS011;22070;50.922;5.430;2023-08-20T11:21:40;9.70;;;2.90;;
36001;SDS011;22070;50.922;5.430;2023-08-20T11:24:07;9.27;;;2.92;;
36001;SDS011;22070;50.922;5.430;2023-08-20T11:26:34;7.78;;;2.85;;
36001;SDS011;22070;50.922;5.430;2023-08-20T11:29:05;5.38;;;2.67;;
36001;SDS011;22070;50.922;5.430;2023-08-20T11:31:31;6.32;;;2.60;;
36001;SDS011;22070;50.922;5.430;2023-08-20T11:33:57;4.37;;;2.60;;
36001;SDS011;22070;50.922;5.430;2023-08-20T11:36:23;8.00;;;2.85;;
36001;SDS011;22070;50.922;5.430;2023-08-20T11:38:52;7.22;;;2.08;;
36001;SDS011;22070;50.922;5.430;2023-08-20T11:41:22;5.05;;;2.17;;
36001;SDS011;22070;50.922;5.430;2023-08-20T11:43:50;4.90;;;1.85;;
36001;SDS011;22070;50.922;5.430;2023-08-20T11:46:22;5.82;;;1.92;;
36001;SDS011;22070;50.922;5.430;2023-08-20T11:51:36;6.88;;;2.00;;
36001;SDS011;22070;50.922;5.430;2023-08-20T11:54:04;8.35;;;2.05;;
36001;SDS011;22070;50.922;5.430;2023-08-20T11:56:42;3.33;;;1.17;;
36001;SDS011;22070;50.922;5.430;2023-08-20T11:59:10;4.93;;;1.70;;
36001;SDS011;22070;50.922;5.430;2023-08-20T12:01:36;2.88;;;1.35;;
36001;SDS011;22070;50.922;5.430;2023-08-20T12:04:09;3.45;;;1.70;;
36001;SDS011;22070;50.922;5.430;2023-08-20T12:06:36;5.57;;;2.20;;
36001;SDS011;22070;50.922;5.430;2023-08-20T12:09:22;8.52;;;1.90;;
36001;SDS011;22070;50.922;5.430;2023-08-20T12:11:48;5.93;;;1.80;;
36001;SDS011;22070;50.922;5.430;2023-08-20T12:14:18;3.15;;;1.98;;
36001;SDS011;22070;50.922;5.430;2023-08-20T12:21:35;4.90;;;1.90;;
36001;SDS011;22070;50.922;5.430;2023-08-20T12:24:01;4.17;;;1.73;;
36001;SDS011;22070;50.922;5.430;2023-08-20T12:26:26;4.03;;;2.17;;
36001;SDS011;22070;50.922;5.430;2023-08-20T12:28:52;4.40;;;2.00;;
36001;SDS011;22070;50.922;5.430;2023-08-20T12:31:17;6.50;;;2.07;;
36001;SDS011;22070;50.922;5.430;2023-08-20T12:33:43;2.67;;;1.63;;
36001;SDS011;22070;50.922;5.430;2023-08-20T12:36:09;5.87;;;1.97;;
36001;SDS011;22070;50.922;5.430;2023-08-20T12:38:34;6.28;;;2.35;;
36001;SDS011;22070;50.922;5.430;2023-08-20T12:41:01;5.68;;;1.88;;
36001;SDS011;22070;50.922;5.430;2023-08-20T12:43:29;3.45;;;1.70;;
36001;SDS011;22070;50.922;5.430;2023-08-20T12:45:54;3.67;;;1.90;;
36001;SDS011;22070;50.922;5.430;2023-08-20T12:48:20;4.37;;;1.70;;
36001;SDS011;22070;50.922;5.430;2023-08-20T12:50:45;4.93;;;1.90;;
36001;SDS011;22070;50.922;5.430;2023-08-20T12:53:11;4.63;;;1.70;;
36001;SDS011;22070;50.922;5.430;2023-08-20T12:55:38;3.63;;;1.65;;
36001;SDS011;22070;50.922;5.430;2023-08-20T12:58:03;2.45;;;1.58;;
36001;SDS011;22070;50.922;5.430;2023-08-20T13:00:29;3.23;;;1.53;;
36001;SDS011;22070;50.922;5.430;2023-08-20T13:02:55;5.20;;;2.00;;
36001;SDS011;22070;50.922;5.430;2023-08-20T13:05:22;6.03;;;2.25;;
36001;SDS011;22070;50.922;5.430;2023-08-20T13:07:49;4.47;;;1.90;;
36001;SDS011;22070;50.922;5.430;2023-08-20T13:10:15;5.20;;;1.90;;
36001;SDS011;22070;50.922;5.430;2023-08-20T13:12:41;2.97;;;1.60;;
36001;SDS011;22070;50.922;5.430;2023-08-20T13:15:08;4.20;;;1.95;;
36001;SDS011;22070;50.922;5.430;2023-08-20T13:17:35;6.05;;;2.92;;
36001;SDS011;22070;50.922;5.430;2023-08-20T13:20:02;7.88;;;1.80;;
36001;SDS011;22070;50.922;5.430;2023-08-20T13:22:30;2.25;;;1.50;;
36001;SDS011;22070;50.922;5.430;2023-08-20T13:24:55;2.83;;;1.45;;
36001;SDS011;22070;50.922;5.430;2023-08-20T13:27:21;4.93;;;1.90;;
36001;SDS011;22070;50.922;5.430;2023-08-20T13:29:47;3.03;;;1.67;;
36001;SDS011;22070;50.922;5.430;2023-08-20T13:32:12;3.50;;;2.00;;
36001;SDS011;22070;50.922;5.430;2023-08-20T13:34:38;3.65;;;1.73;;
36001;SDS011;22070;50.922;5.430;2023-08-20T13:37:04;2.47;;;1.52;;
36001;SDS011;22070;50.922;5.430;2023-08-20T13:39:29;4.03;;;1.55;;
36001;SDS011;22070;50.922;5.430;2023-08-20T13:41:55;5.80;;;1.70;;
36001;SDS011;22070;50.922;5.430;2023-08-20T13:44:20;5.60;;;1.73;;
36001;SDS011;22070;50.922;5.430;2023-08-20T13:46:46;3.22;;;1.30;;
36001;SDS011;22070;50.922;5.430;2023-08-20T13:49:12;2.22;;;1.27;;
36001;SDS011;22070;50.922;5.430;2023-08-20T13:51:38;3.72;;;1.40;;
36001;SDS011;22070;50.922;5.430;2023-08-20T13:54:03;2.50;;;1.30;;
36001;SDS011;22070;50.922;5.430;2023-08-20T13:56:29;3.05;;;1.52;;
36001;SDS011;22070;50.922;5.430;2023-08-20T13:58:55;1.77;;;1.30;;
36001;SDS011;22070;50.922;5.430;2023-08-20T14:01:21;2.97;;;1.30;;
36001;SDS011;22070;50.922;5.430;2023-08-20T14:06:12;4.75;;;1.30;;
36001;SDS011;22070;50.922;5.430;2023-08-20T14:08:38;2.08;;;1.50;;
36001;SDS011;22070;50.922;5.430;2023-08-20T14:11:05;3.42;;;1.60;;
36001;SDS011;22070;50.922;5.430;2023-08-20T14:13:30;4.28;;;1.70;;
36001;SDS011;22070;50.922;5.430;2023-08-20T14:15:57;5.85;;;1.60;;
36001;SDS011;22070;50.922;5.430;2023-08-20T14:18:22;4.43;;;1.98;;
36001;SDS011;22070;50.922;5.430;2023-08-20T14:20:48;9.98;;;6.85;;
36001;SDS011;22070;50.922;5.430;2023-08-20T14:23:14;6.32;;;2.53;;
36001;SDS011;22070;50.922;5.430;2023-08-20T14:25:39;5.60;;;1.90;;
36001;SDS011;22070;50.922;5.430;2023-08-20T14:28:06;3.70;;;1.75;;
36001;SDS011;22070;50.922;5.430;2023-08-20T14:30:35;4.68;;;2.13;;
36001;SDS011;22070;50.922;5.430;2023-08-20T14:33:02;2.22;;;1.50;;
36001;SDS011;22070;50.922;5.430;2023-08-20T14:35:28;4.75;;;1.77;;
36001;SDS011;22070;50.922;5.430;2023-08-20T14:37:54;3.55;;;2.00;;
36001;SDS011;22070;50.922;5.430;2023-08-20T14:40:19;5.78;;;1.70;;
36001;SDS011;22070;50.922;5.430;2023-08-20T14:42:45;2.45;;;1.70;;
36001;SDS011;22070;50.922;5.430;2023-08-20T14:45:10;4.03;;;1.45;;
36001;SDS011;22070;50.922;5.430;2023-08-20T14:47:36;3.45;;;1.45;;
36001;SDS011;22070;50.922;5.430;2023-08-20T14:50:02;4.38;;;1.80;;
36001;SDS011;22070;50.922;5.430;2023-08-20T14:52:28;4.20;;;1.70;;
36001;SDS011;22070;50.922;5.430;2023-08-20T14:54:54;5.40;;;2.05;;
36001;SDS011;22070;50.922;5.430;2023-08-20T14:57:19;2.90;;;1.58;;
36001;SDS011;22070;50.922;5.430;2023-08-20T14:59:45;4.18;;;1.45;;
36001;SDS011;22070;50.922;5.430;2023-08-20T15:02:11;2.67;;;1.50;;
36001;SDS011;22070;50.922;5.430;2023-08-20T15:04:36;2.85;;;1.20;;
36001;SDS011;22070;50.922;5.430;2023-08-20T15:07:02;3.25;;;1.83;;
36001;SDS011;22070;50.922;5.430;2023-08-20T15:09:28;4.43;;;2.55;;
36001;SDS011;22070;50.922;5.430;2023-08-20T15:11:54;5.47;;;2.30;;